Aydin, Turkey
Current Conditions -  °F | °C
As of 6:20 PM on Wednesday 22 Oct 2014 (Local Time) from LTFE Reporting Station
Broken Clouds Broken Clouds  
Wind Chill: 72°   Ceiling: 20000
Heat Index: 72°   Visibility: 6mi
Dew Point: 52°   Wind: 9mph
Humidity: 50%   Direction: 140°SE
Pressure: 29.85"   Gusts: NA
Location:  37.86°N, 27.84°E
Report Text: LTFE 221520Z 14008KT 9999 FEW035 SCT100 BKN200 22/11 Q1011 NOSIG
Loading
Personal Weather Stations






























Interactive Weather Map
Tropical Storm Tracking
New forecast layout! Learn more

10-Day Weather Forecast

Advertisements
Track Severe Weather on mobile